Karlovy, Czech Republic

9:11 AM CEST on April 23, 2017 (GMT +0200)
Karlovy Vary | | Change Station

Elev 1982 ft 50.20 °N, 12.92 °E | Updated 11 minutes ago

Scattered Clouds
Scattered Clouds
36 °F
Feels Like 27 °F
N
13
Wind Variable Wind from West

Today
High -- | Low -- °F
--% Chance of Precip.
Yesterday
High -- | Low -- °F
Precip. -- in
Pressure 30.12 in
Visibility 6.2 miles
Clouds Scattered Clouds 1900 ft
Windchill 27 °F
Dew Point 28 °F
Humidity 75%
Rainfall 0.00 in
Snow Depth Not available.
5:58 AM 8:15 PM
Waning Crescent, 14% visible
METAR LKKV 230700Z 28011KT 9999 SCT019 02/M02 Q1020
Pressure 30.12 in
Visibility 6.2 miles
Clouds Scattered Clouds 1900 ft
Windchill 27 °F
Dew Point 28 °F
Humidity 75%
Rainfall 0.00 in
Snow Depth Not available.
5:58 AM 8:15 PM
Waning Crescent, 14% visible
METAR LKKV 230700Z 28011KT 9999 SCT019 02/M02 Q1020

Get Severe Weather Alerts

Thanks for signing up!

Be on the lookout for a verification email in your inbox.

You'll start receiving the daily forecast at 8 AM.

×

10-Day Weather Forecast

×

Almanac

Astronomy

Apr. 23, 2017 Rise Set
Actual Time
Civil Twilight
Nautical Twilight
Astronomical Twilight
Moon
Length of Visible Light
Length of Day
Tomorrow will be .
, % of the Moon is Illuminated

Today's Extremes

Country Highs Country Lows

Community

WunderPhotos

WunderBlog® & News

Nearby

Air Quality

  Air Quality AQ Index Pollutant
Not available.

Snow Depth

Station Depth Elevation

Earthquake Activity

City Distance Mag. Time & Date
Minimum magnitude displayed is 2.5.

Coastal Water Temperatures

Place Temperature

Stations

Nearby Weather Stations

Station Location Temp. Windchill Dew Point Humidity Wind Precip. Elev Updated Type